createdAt,value
2022-12-08T00:02:25.004Z,12.87
2022-12-08T00:05:10.294Z,12.91
2022-12-08T00:07:57.199Z,12.69
2022-12-08T00:10:47.849Z,12.64
2022-12-08T00:13:10.422Z,12.71
2022-12-08T00:15:36.979Z,12.86
2022-12-08T00:18:03.525Z,12.99
2022-12-08T00:20:30.160Z,12.98
2022-12-08T00:22:56.639Z,13.01
2022-12-08T00:25:23.192Z,13.05
2022-12-08T00:27:49.678Z,13.07
2022-12-08T00:30:16.756Z,12.96
2022-12-08T00:32:43.254Z,12.95
2022-12-08T00:35:09.946Z,12.90
2022-12-08T00:37:36.554Z,12.87
2022-12-08T00:40:03.322Z,12.78
2022-12-08T00:42:30.245Z,12.87
2022-12-08T00:44:56.943Z,12.85
2022-12-08T00:47:25.123Z,12.82
2022-12-08T00:49:52.061Z,12.79
2022-12-08T00:52:18.711Z,12.79
2022-12-08T00:54:45.315Z,12.78
2022-12-08T00:57:11.844Z,12.75
2022-12-08T00:59:38.442Z,12.69
2022-12-08T01:02:05.929Z,12.76
2022-12-08T01:04:32.591Z,12.72
2022-12-08T01:06:59.118Z,12.68
2022-12-08T01:09:25.613Z,12.72
2022-12-08T01:11:52.201Z,12.62
2022-12-08T01:14:18.795Z,12.60
2022-12-08T01:16:45.482Z,12.71
2022-12-08T01:19:13.276Z,12.62
2022-12-08T01:21:40.517Z,12.58
2022-12-08T01:24:07.856Z,12.64
2022-12-08T01:26:34.500Z,12.64
2022-12-08T01:29:01.856Z,12.65
2022-12-08T01:31:28.604Z,12.60
2022-12-08T01:33:55.172Z,12.67
2022-12-08T01:36:25.791Z,12.64
2022-12-08T01:38:53.327Z,12.57
2022-12-08T01:41:21.480Z,12.65
2022-12-08T01:43:55.391Z,12.60
2022-12-08T01:46:22.314Z,12.58
2022-12-08T01:48:50.127Z,12.51
2022-12-08T01:51:17.114Z,12.49
2022-12-08T01:53:43.738Z,12.51
2022-12-08T01:56:17.594Z,12.38
2022-12-08T01:58:46.670Z,12.58
2022-12-08T02:01:13.271Z,12.56
2022-12-08T02:03:42.791Z,12.58
2022-12-08T02:06:10.069Z,12.28
2022-12-08T02:08:38.580Z,12.31
2022-12-08T02:11:05.821Z,12.32
2022-12-08T02:13:32.828Z,12.45
2022-12-08T02:15:59.325Z,12.37
2022-12-08T02:18:41.342Z,12.45
2022-12-08T02:21:26.406Z,12.32
2022-12-08T02:24:14.180Z,12.27
2022-12-08T02:26:49.758Z,12.40
2022-12-08T02:29:25.124Z,12.21
2022-12-08T02:32:06.971Z,12.15
2022-12-08T02:35:02.578Z,12.35
2022-12-08T02:37:34.273Z,12.29
2022-12-08T02:40:10.364Z,12.21
2022-12-08T02:42:36.940Z,12.11
2022-12-08T02:45:12.595Z,12.28
2022-12-08T02:47:40.121Z,12.22
2022-12-08T02:50:07.221Z,12.32
2022-12-08T02:52:33.716Z,12.27
2022-12-08T02:55:06.477Z,12.41
2022-12-08T02:57:45.046Z,12.26
2022-12-08T03:00:14.013Z,12.23
2022-12-08T03:02:40.703Z,12.13
2022-12-08T03:05:22.004Z,12.07
2022-12-08T03:07:57.384Z,12.00
2022-12-08T03:10:35.753Z,12.09
2022-12-08T03:13:08.211Z,12.17
2022-12-08T03:15:36.679Z,12.22
2022-12-08T03:18:04.120Z,12.25
2022-12-08T03:20:31.875Z,12.02
2022-12-08T03:23:00.184Z,12.00
2022-12-08T03:25:27.994Z,11.92
2022-12-08T03:27:54.663Z,12.00
2022-12-08T03:30:21.538Z,12.02
2022-12-08T03:33:08.401Z,12.00
2022-12-08T03:35:37.206Z,12.08
2022-12-08T03:38:03.720Z,12.03
2022-12-08T03:40:30.210Z,11.97
2022-12-08T03:42:56.673Z,11.97
2022-12-08T03:45:23.217Z,12.09
2022-12-08T03:47:49.816Z,12.07
2022-12-08T03:50:16.334Z,11.94
2022-12-08T03:52:42.892Z,11.93
2022-12-08T03:55:09.672Z,11.90
2022-12-08T03:57:36.229Z,11.87
2022-12-08T04:00:04.477Z,11.89
2022-12-08T04:02:31.846Z,11.83
2022-12-08T04:04:58.363Z,11.93
2022-12-08T04:07:24.888Z,11.96
2022-12-08T04:09:51.375Z,11.82
2022-12-08T04:12:17.891Z,11.82
2022-12-08T04:14:44.382Z,11.80
2022-12-08T04:17:10.885Z,11.79
2022-12-08T04:19:37.583Z,11.82
2022-12-08T04:22:04.299Z,11.90
2022-12-08T04:24:31.030Z,11.90
2022-12-08T04:26:57.679Z,11.79
2022-12-08T04:29:24.544Z,11.72
2022-12-08T04:31:51.206Z,11.70
2022-12-08T04:34:17.968Z,11.67
2022-12-08T04:36:44.664Z,11.74
2022-12-08T04:39:11.275Z,11.73
2022-12-08T04:41:37.935Z,11.75
2022-12-08T04:44:04.803Z,11.66
2022-12-08T04:46:31.544Z,11.63
2022-12-08T04:48:58.107Z,11.64
2022-12-08T04:51:24.697Z,11.67
2022-12-08T04:53:51.267Z,11.65
2022-12-08T04:56:18.675Z,11.66
2022-12-08T04:58:45.898Z,11.61
2022-12-08T05:01:13.009Z,11.65
2022-12-08T05:03:39.649Z,11.62
2022-12-08T05:06:06.332Z,11.73
2022-12-08T05:08:33.069Z,11.64
2022-12-08T05:11:06.400Z,11.56
2022-12-08T05:13:33.047Z,11.66
2022-12-08T05:16:06.108Z,11.63
2022-12-08T05:18:32.671Z,11.73
2022-12-08T05:20:59.264Z,11.64
2022-12-08T05:23:26.496Z,11.74
2022-12-08T05:25:53.185Z,11.73
2022-12-08T05:28:40.879Z,11.60
2022-12-08T05:31:06.747Z,11.59
2022-12-08T05:33:33.364Z,11.55
2022-12-08T05:35:59.976Z,11.49
2022-12-08T05:38:26.669Z,11.63
2022-12-08T05:40:53.364Z,11.72
2022-12-08T05:43:20.046Z,11.78
2022-12-08T05:45:46.791Z,11.69
2022-12-08T05:48:13.537Z,11.71
2022-12-08T05:50:40.409Z,11.66
2022-12-08T05:53:07.076Z,11.65
2022-12-08T05:55:33.745Z,11.69
2022-12-08T05:58:04.639Z,11.52
2022-12-08T06:00:34.890Z,11.50
2022-12-08T06:03:01.608Z,11.63
2022-12-08T06:05:28.385Z,11.55
2022-12-08T06:07:55.069Z,11.62
2022-12-08T06:10:21.773Z,11.62
2022-12-08T06:12:48.421Z,11.57
2022-12-08T06:15:15.118Z,11.44
2022-12-08T06:17:41.789Z,11.46
2022-12-08T06:20:08.677Z,11.47
2022-12-08T06:22:35.409Z,11.44
2022-12-08T06:25:04.978Z,11.58
2022-12-08T06:27:34.101Z,11.43
2022-12-08T06:30:00.861Z,11.47
2022-12-08T06:32:27.852Z,11.45
2022-12-08T06:34:54.455Z,11.48
2022-12-08T06:37:21.019Z,11.35
2022-12-08T06:39:47.505Z,11.53
2022-12-08T06:42:33.005Z,11.51
2022-12-08T06:44:59.920Z,11.41
2022-12-08T06:47:26.644Z,11.31
2022-12-08T06:49:53.267Z,11.35
2022-12-08T06:52:19.891Z,11.58
2022-12-08T06:54:46.354Z,11.46
2022-12-08T06:57:12.802Z,11.33
2022-12-08T06:59:39.733Z,11.28
2022-12-08T07:02:06.457Z,11.33
2022-12-08T07:04:33.023Z,11.24
2022-12-08T07:06:59.600Z,11.25
2022-12-08T07:09:26.137Z,11.26
2022-12-08T07:11:52.811Z,11.27
2022-12-08T07:14:23.563Z,11.30
2022-12-08T07:16:53.168Z,11.22
2022-12-08T07:19:19.828Z,11.23
2022-12-08T07:21:46.448Z,11.20
2022-12-08T07:24:13.305Z,11.36
2022-12-08T07:26:40.133Z,11.37
2022-12-08T07:29:06.806Z,11.33
2022-12-08T07:31:34.292Z,11.31
2022-12-08T07:34:00.826Z,11.26
2022-12-08T07:36:27.389Z,11.30
2022-12-08T07:38:54.062Z,11.30
2022-12-08T07:41:23.306Z,11.28
2022-12-08T07:43:50.687Z,11.22
2022-12-08T07:46:18.533Z,11.18
2022-12-08T07:48:45.127Z,11.19
2022-12-08T07:51:13.660Z,11.28
2022-12-08T07:53:42.704Z,11.29
2022-12-08T07:56:10.616Z,11.29
2022-12-08T07:58:37.382Z,11.19
2022-12-08T08:01:04.593Z,11.20
2022-12-08T08:03:31.673Z,11.13
2022-12-08T08:06:04.593Z,11.07
2022-12-08T08:08:31.660Z,11.03
2022-12-08T08:10:58.426Z,11.04
2022-12-08T08:13:25.040Z,11.19
2022-12-08T08:15:51.687Z,11.19
2022-12-08T08:18:18.359Z,11.22
2022-12-08T08:20:45.028Z,11.22
2022-12-08T08:23:11.714Z,11.27
2022-12-08T08:25:38.187Z,11.30
2022-12-08T08:28:04.767Z,11.39
2022-12-08T08:30:31.369Z,11.32
2022-12-08T08:32:58.026Z,11.42
2022-12-08T08:35:25.709Z,11.45
2022-12-08T08:37:52.205Z,11.50
2022-12-08T08:40:18.799Z,11.47
2022-12-08T08:42:45.332Z,11.49
2022-12-08T08:45:12.033Z,11.53
2022-12-08T08:47:38.608Z,11.56
2022-12-08T08:50:05.809Z,11.53
2022-12-08T08:52:32.625Z,11.55
2022-12-08T08:54:59.203Z,11.59
2022-12-08T08:57:26.394Z,11.58
2022-12-08T08:59:53.352Z,11.65
2022-12-08T09:02:20.291Z,11.63
2022-12-08T09:04:47.097Z,11.59
2022-12-08T09:07:14.146Z,11.63
2022-12-08T09:09:40.675Z,11.67
2022-12-08T09:12:07.945Z,11.69
2022-12-08T09:14:34.514Z,11.70
2022-12-08T09:17:01.042Z,11.74
2022-12-08T09:19:27.627Z,11.74
2022-12-08T09:21:54.241Z,11.77
2022-12-08T09:24:20.791Z,11.83
2022-12-08T09:26:47.471Z,11.82
2022-12-08T09:29:14.725Z,11.85
2022-12-08T09:31:41.325Z,11.86
2022-12-08T09:34:08.018Z,11.88
2022-12-08T09:36:34.667Z,11.90
2022-12-08T09:39:01.315Z,11.91
2022-12-08T09:41:48.608Z,11.89
2022-12-08T09:44:34.310Z,11.91
2022-12-08T09:47:02.252Z,11.86
2022-12-08T09:50:01.653Z,11.88
2022-12-08T09:52:33.555Z,11.89
2022-12-08T09:55:03.164Z,11.88
2022-12-08T09:57:31.965Z,11.91
2022-12-08T10:00:01.258Z,11.91
2022-12-08T10:02:29.453Z,11.88
2022-12-08T10:04:56.777Z,11.93
2022-12-08T10:07:23.338Z,11.91
2022-12-08T10:09:58.668Z,11.94
2022-12-08T10:12:34.807Z,11.96
2022-12-08T10:15:20.188Z,11.97
2022-12-08T10:17:51.160Z,11.96
2022-12-08T10:20:19.929Z,11.97
2022-12-08T10:22:50.838Z,11.97
2022-12-08T10:25:22.296Z,11.97
2022-12-08T10:27:51.327Z,11.99
2022-12-08T10:30:19.160Z,11.99
2022-12-08T10:32:48.334Z,12.02
2022-12-08T10:35:16.025Z,12.00
2022-12-08T10:37:54.605Z,11.99
2022-12-08T10:40:21.619Z,12.05
2022-12-08T10:42:50.933Z,12.04
2022-12-08T10:45:30.664Z,12.09
2022-12-08T10:47:59.533Z,12.09
2022-12-08T10:50:42.469Z,12.12
2022-12-08T10:53:09.056Z,12.09
2022-12-08T10:55:43.496Z,12.12
2022-12-08T10:58:30.265Z,12.14
2022-12-08T11:01:03.062Z,12.13
2022-12-08T11:03:31.473Z,12.11
2022-12-08T11:06:09.034Z,12.10
2022-12-08T11:08:45.601Z,12.16
2022-12-08T11:11:12.147Z,12.14
2022-12-08T11:13:41.191Z,12.18
2022-12-08T11:16:08.293Z,12.18
2022-12-08T11:18:42.305Z,12.17
2022-12-08T11:21:14.027Z,12.20
2022-12-08T11:23:41.581Z,12.19
2022-12-08T11:26:13.007Z,12.21
2022-12-08T11:28:39.742Z,12.19
2022-12-08T11:31:32.713Z,12.21
2022-12-08T11:33:59.234Z,12.17
2022-12-08T11:36:27.212Z,12.20
2022-12-08T11:38:57.358Z,12.22
2022-12-08T11:41:32.018Z,12.23
2022-12-08T11:44:01.299Z,12.25
2022-12-08T11:46:32.471Z,12.23
2022-12-08T11:49:06.647Z,12.27
2022-12-08T11:51:36.522Z,12.25
2022-12-08T11:54:12.442Z,12.22
2022-12-08T11:56:46.928Z,12.24
2022-12-08T11:59:25.385Z,12.24
2022-12-08T12:01:52.260Z,12.22
2022-12-08T12:04:32.300Z,12.24
2022-12-08T12:07:26.602Z,12.25
2022-12-08T12:10:08.322Z,12.31
2022-12-08T12:12:40.816Z,12.28
2022-12-08T12:15:15.934Z,12.35
2022-12-08T12:18:01.486Z,12.32
2022-12-08T12:20:30.729Z,12.36
2022-12-08T12:23:08.535Z,12.33
2022-12-08T12:25:36.102Z,12.36
2022-12-08T12:28:05.396Z,12.32
2022-12-08T12:30:52.168Z,12.29
2022-12-08T12:33:20.402Z,12.32
2022-12-08T12:35:49.981Z,12.30
2022-12-08T12:38:42.900Z,12.34
2022-12-08T12:41:10.640Z,12.29
2022-12-08T12:43:38.150Z,12.30
2022-12-08T12:46:23.203Z,12.29
2022-12-08T12:48:50.440Z,12.36
2022-12-08T12:51:35.301Z,12.34
2022-12-08T12:54:21.018Z,12.31
2022-12-08T12:57:07.470Z,12.34
2022-12-08T12:59:39.978Z,12.33
2022-12-08T13:02:16.503Z,12.33
2022-12-08T13:04:52.262Z,12.38
2022-12-08T13:07:23.722Z,12.39
2022-12-08T13:09:56.032Z,12.44
2022-12-08T13:12:23.924Z,12.40
2022-12-08T13:14:51.121Z,12.39
2022-12-08T13:17:24.966Z,12.42
2022-12-08T13:19:54.526Z,12.48
2022-12-08T13:22:39.885Z,12.41
2022-12-08T13:25:25.271Z,12.42
2022-12-08T13:27:53.377Z,12.41
2022-12-08T13:30:35.489Z,12.44
2022-12-08T13:33:17.796Z,12.40
2022-12-08T13:35:47.913Z,12.40
2022-12-08T13:38:19.342Z,12.44
2022-12-08T13:40:46.336Z,12.51
2022-12-08T13:43:37.271Z,12.54
2022-12-08T13:46:57.935Z,12.53
2022-12-08T13:55:25.929Z,12.43
2022-12-08T13:57:28.776Z,12.43
2022-12-08T13:59:59.509Z,12.40
2022-12-08T14:02:45.485Z,12.40
2022-12-08T14:05:19.000Z,12.49
2022-12-08T14:07:47.531Z,12.43
2022-12-08T14:10:17.527Z,12.44
2022-12-08T14:12:46.069Z,12.42
2022-12-08T14:15:14.228Z,12.49
2022-12-08T14:17:40.751Z,12.43
2022-12-08T14:20:07.566Z,12.45
2022-12-08T14:22:35.158Z,12.41
2022-12-08T14:25:02.346Z,12.45
2022-12-08T14:27:33.700Z,12.41
2022-12-08T14:30:01.547Z,12.44
2022-12-08T14:32:30.392Z,12.52
2022-12-08T14:35:02.640Z,12.44
2022-12-08T14:37:32.769Z,12.38
2022-12-08T14:40:22.688Z,12.40
2022-12-08T14:43:07.943Z,12.42
2022-12-08T14:45:54.708Z,12.43
2022-12-08T14:48:36.516Z,12.46
2022-12-08T14:51:03.032Z,12.44
2022-12-08T14:53:35.753Z,12.43
2022-12-08T14:56:06.660Z,12.48
2022-12-08T14:58:33.384Z,12.49
2022-12-08T15:01:00.898Z,12.45
2022-12-08T15:03:28.729Z,12.51
2022-12-08T15:05:56.869Z,12.45
2022-12-08T15:08:24.106Z,12.51
2022-12-08T15:11:09.503Z,12.42
2022-12-08T15:13:43.690Z,12.40
2022-12-08T15:16:27.318Z,12.36
2022-12-08T15:19:16.289Z,12.40
2022-12-08T15:21:44.002Z,12.43
2022-12-08T15:24:11.770Z,12.28
2022-12-08T15:26:45.703Z,12.36
2022-12-08T15:29:14.203Z,12.39
2022-12-08T15:31:40.744Z,12.42
2022-12-08T15:34:07.476Z,12.42
2022-12-08T15:36:34.116Z,12.46
2022-12-08T15:39:00.839Z,12.42
2022-12-08T15:41:27.466Z,12.41
2022-12-08T15:43:54.125Z,12.42
2022-12-08T15:46:20.789Z,12.44
2022-12-08T15:48:47.523Z,12.35
2022-12-08T15:51:13.982Z,12.40
2022-12-08T15:53:40.789Z,12.35
2022-12-08T15:58:55.970Z,12.40
2022-12-08T16:01:24.106Z,12.38
2022-12-08T16:07:19.818Z,12.37
2022-12-08T16:09:26.991Z,12.39
2022-12-08T16:12:12.222Z,12.43
2022-12-08T16:17:26.532Z,12.47
2022-12-08T16:19:53.489Z,12.46
2022-12-08T16:25:18.625Z,12.48
2022-12-08T16:28:12.411Z,12.48
2022-12-08T16:30:32.390Z,12.51
2022-12-08T16:32:59.067Z,12.47
2022-12-08T16:35:25.582Z,12.47
2022-12-08T16:37:52.154Z,12.46
2022-12-08T16:40:18.877Z,12.45
2022-12-08T16:42:50.043Z,12.51
2022-12-08T16:45:21.258Z,12.48
2022-12-08T16:47:49.304Z,12.39
2022-12-08T16:50:17.348Z,12.40
2022-12-08T16:52:44.515Z,12.41
2022-12-08T16:55:12.374Z,12.47
2022-12-08T16:57:39.306Z,12.44
2022-12-08T17:00:07.496Z,12.38
2022-12-08T17:02:34.755Z,12.40
2022-12-08T17:05:01.352Z,12.38
2022-12-08T17:07:28.020Z,12.46
2022-12-08T17:09:54.767Z,12.40
2022-12-08T17:12:21.368Z,12.41
2022-12-08T17:14:47.992Z,12.40
2022-12-08T17:17:14.462Z,12.54
2022-12-08T17:19:41.147Z,12.46
2022-12-08T17:22:07.760Z,12.49
2022-12-08T17:24:34.324Z,12.46
2022-12-08T17:27:04.363Z,12.44
2022-12-08T17:29:31.927Z,12.55
2022-12-08T17:31:58.769Z,12.48
2022-12-08T17:34:25.718Z,12.45
2022-12-08T17:36:52.269Z,12.38
2022-12-08T17:39:19.310Z,12.46
2022-12-08T17:41:46.482Z,12.43
2022-12-08T17:44:14.445Z,12.43
2022-12-08T17:46:44.292Z,12.47
2022-12-08T17:49:18.471Z,12.46
2022-12-08T17:51:49.296Z,12.43
2022-12-08T17:54:16.957Z,12.39
2022-12-08T17:56:43.721Z,12.40
2022-12-08T17:59:10.818Z,12.41
2022-12-08T18:01:37.881Z,12.45
2022-12-08T18:04:05.876Z,12.42
2022-12-08T18:06:32.936Z,12.46
2022-12-08T18:09:00.118Z,12.42
2022-12-08T18:11:27.295Z,12.44
2022-12-08T18:13:54.412Z,12.42
2022-12-08T18:16:21.979Z,12.41
2022-12-08T18:18:48.859Z,12.44
2022-12-08T18:21:21.560Z,12.50
2022-12-08T18:23:50.284Z,12.44
2022-12-08T18:26:17.014Z,12.36
2022-12-08T18:28:43.738Z,12.40
2022-12-08T18:31:14.789Z,12.45
2022-12-08T18:33:42.781Z,12.40
2022-12-08T18:36:14.167Z,12.36
2022-12-08T18:38:40.847Z,12.35
2022-12-08T18:41:08.462Z,12.41
2022-12-08T18:43:35.196Z,12.32
2022-12-08T18:46:02.589Z,12.34
2022-12-08T18:48:29.314Z,12.31
2022-12-08T18:50:55.820Z,12.39
2022-12-08T18:53:22.634Z,12.38
2022-12-08T18:55:50.932Z,12.43
2022-12-08T18:58:17.801Z,12.40
2022-12-08T19:00:44.317Z,12.34
2022-12-08T19:03:11.502Z,12.37
2022-12-08T19:05:38.293Z,12.37
2022-12-08T19:08:04.915Z,12.38
2022-12-08T19:10:32.194Z,12.43
2022-12-08T19:12:58.756Z,12.40
2022-12-08T19:15:25.396Z,12.44
2022-12-08T19:17:51.963Z,12.50
2022-12-08T19:20:18.632Z,12.45
2022-12-08T19:22:45.371Z,12.47
2022-12-08T19:25:12.298Z,12.47
2022-12-08T19:27:38.851Z,12.41
2022-12-08T19:30:05.985Z,12.40
2022-12-08T19:32:32.968Z,12.35
2022-12-08T19:34:59.633Z,12.35
2022-12-08T19:37:26.488Z,12.42
2022-12-08T19:40:11.311Z,12.41
2022-12-08T19:42:56.156Z,12.39
2022-12-08T19:45:22.916Z,12.38
2022-12-08T19:47:49.726Z,12.36
2022-12-08T19:50:35.215Z,12.33
2022-12-08T19:53:02.439Z,12.32
2022-12-08T19:55:28.942Z,12.30
2022-12-08T19:57:57.076Z,12.32
2022-12-08T20:00:23.933Z,12.39
2022-12-08T20:02:50.626Z,12.40
2022-12-08T20:05:17.293Z,12.29
2022-12-08T20:07:43.878Z,12.26
2022-12-08T20:10:36.911Z,12.30
2022-12-08T20:13:22.804Z,12.30
2022-12-08T20:15:49.853Z,12.34
2022-12-08T20:18:17.057Z,12.32
2022-12-08T20:20:44.353Z,12.27
2022-12-08T20:23:13.341Z,12.27
2022-12-08T20:25:43.887Z,12.34
2022-12-08T20:28:10.709Z,12.29
2022-12-08T20:30:44.958Z,12.22
2022-12-08T20:33:13.152Z,12.18
2022-12-08T20:35:39.756Z,12.23
2022-12-08T20:38:06.435Z,12.24
2022-12-08T20:40:32.925Z,12.24
2022-12-08T20:42:59.605Z,12.26
2022-12-08T20:45:26.229Z,12.29
2022-12-08T20:47:52.846Z,12.34
2022-12-08T20:50:19.556Z,12.28
2022-12-08T20:52:46.105Z,12.34
2022-12-08T20:55:12.761Z,12.26
2022-12-08T20:57:39.276Z,12.24
2022-12-08T21:00:06.722Z,12.26
2022-12-08T21:02:33.740Z,12.28
2022-12-08T21:05:00.629Z,12.29
2022-12-08T21:07:27.281Z,12.48
2022-12-08T21:09:54.797Z,12.87
2022-12-08T21:12:21.591Z,13.09
2022-12-08T21:14:48.352Z,13.28
2022-12-08T21:17:15.451Z,13.34
2022-12-08T21:19:42.177Z,13.45
2022-12-08T21:22:08.835Z,13.53
2022-12-08T21:24:35.522Z,13.61
2022-12-08T21:27:02.294Z,13.71
2022-12-08T21:29:28.926Z,13.82
2022-12-08T21:32:00.159Z,13.81
2022-12-08T21:34:31.778Z,13.92
2022-12-08T21:36:58.753Z,13.90
2022-12-08T21:39:25.597Z,13.96
2022-12-08T21:42:11.192Z,14.02
2022-12-08T21:44:38.125Z,14.05
2022-12-08T21:47:05.035Z,14.10
2022-12-08T21:49:32.406Z,14.18
2022-12-08T21:51:59.194Z,14.18
2022-12-08T21:54:25.893Z,14.23
2022-12-08T21:56:52.653Z,14.24
2022-12-08T21:59:20.801Z,14.25
2022-12-08T22:01:47.861Z,14.34
2022-12-08T22:04:18.417Z,13.90
2022-12-08T22:06:45.307Z,13.60
2022-12-08T22:09:13.463Z,13.45
2022-12-08T22:11:40.505Z,13.33
2022-12-08T22:14:12.471Z,13.24
2022-12-08T22:16:41.026Z,13.14
2022-12-08T22:19:07.564Z,13.08
2022-12-08T22:21:34.410Z,13.01
2022-12-08T22:24:01.407Z,12.92
2022-12-08T22:26:28.211Z,12.85
2022-12-08T22:28:55.034Z,12.83
2022-12-08T22:31:21.808Z,12.84
2022-12-08T22:33:49.416Z,12.88
2022-12-08T22:36:16.506Z,12.91
2022-12-08T22:38:43.162Z,12.91
2022-12-08T22:41:09.793Z,12.80
2022-12-08T22:43:37.335Z,12.70
2022-12-08T22:46:11.854Z,12.73
2022-12-08T22:48:39.410Z,12.69
2022-12-08T22:51:06.703Z,12.53
2022-12-08T22:53:33.693Z,12.38
2022-12-08T22:56:03.841Z,12.36
2022-12-08T22:58:30.726Z,12.39
2022-12-08T23:00:57.330Z,12.32
2022-12-08T23:03:24.232Z,12.16
2022-12-08T23:05:51.015Z,12.11
2022-12-08T23:08:18.284Z,12.12
2022-12-08T23:10:47.324Z,12.09
2022-12-08T23:13:14.809Z,12.10
2022-12-08T23:15:41.468Z,12.02
2022-12-08T23:18:08.604Z,11.98
2022-12-08T23:20:35.186Z,11.90
2022-12-08T23:23:02.242Z,11.85
2022-12-08T23:25:28.896Z,11.92
2022-12-08T23:27:55.550Z,11.86
2022-12-08T23:30:22.237Z,11.81
2022-12-08T23:32:48.886Z,11.75
2022-12-08T23:35:15.799Z,11.75
2022-12-08T23:37:42.301Z,11.76
2022-12-08T23:40:09.146Z,11.69
2022-12-08T23:42:35.883Z,11.63
2022-12-08T23:45:04.325Z,11.64
2022-12-08T23:47:31.140Z,11.66
2022-12-08T23:49:57.764Z,11.63
2022-12-08T23:52:24.404Z,11.62
2022-12-08T23:54:51.189Z,11.57
2022-12-08T23:57:17.953Z,11.53
2022-12-08T23:59:44.599Z,11.51
